Time;durP1;ratioP1;P1;durP2;ratioP2;P2;SDS_P1;SDS_P2;PMS_P1;PMS_P2;Temp;Humidity;BMP_temperature;BMP_pressure;BME280_temperature;BME280_humidity;BME280_pressure;Samples;Min_cycle;Max_cycle;Signal;HPM_P1;HPM_P2
2022/11/13 00:00:31;;;;;;;41.70;5.67;;;;;;;;;;5036495;28;20228;-87
2022/11/13 00:03:54;;;;;;;8.53;5.20;;;;;;;;;;5024971;28;20182;-88
2022/11/13 00:07:16;;;;;;;28.90;6.00;;;;;;;;;;5027577;28;20181;-87
2022/11/13 00:10:39;;;;;;;21.77;5.90;;;;;;;;;;5036109;28;20212;-87
2022/11/13 00:14:02;;;;;;;20.27;5.00;;;;;;;;;;5024830;28;20205;-88
2022/11/13 00:17:24;;;;;;;27.27;5.20;;;;;;;;;;5016113;28;20181;-88
2022/11/13 00:20:47;;;;;;;8.97;5.10;;;;;;;;;;5035521;28;20228;-88
2022/11/13 00:24:09;;;;;;;8.20;5.47;;;;;;;;;;5015870;28;20181;-87
2022/11/13 00:27:31;;;;;;;36.00;5.20;;;;;;;;;;5024483;28;20177;-86
2022/11/13 00:30:58;;;;;;;14.73;4.83;;;;;;;;;;5015677;28;20319;-87
2022/11/13 00:34:20;;;;;;;53.47;5.97;;;;;;;;;;5015214;28;20212;-88
2022/11/13 00:37:42;;;;;;;49.13;5.97;;;;;;;;;;5024107;28;20524;-88
2022/11/13 00:41:05;;;;;;;18.43;5.23;;;;;;;;;;5035181;28;20221;-89
2022/11/13 00:44:27;;;;;;;22.90;5.20;;;;;;;;;;5023562;28;20520;-87
2022/11/13 00:47:50;;;;;;;16.83;5.10;;;;;;;;;;5035944;28;20185;-88
2022/11/13 00:51:13;;;;;;;49.47;5.87;;;;;;;;;;5024031;28;20216;-87
2022/11/13 00:54:35;;;;;;;6.10;5.03;;;;;;;;;;5023569;28;20209;-87
2022/11/13 00:57:57;;;;;;;14.20;5.10;;;;;;;;;;5015070;28;20185;-87
2022/11/13 01:01:20;;;;;;;18.07;4.80;;;;;;;;;;5085381;22;20231;-86
2022/11/13 01:04:43;;;;;;;30.27;5.47;;;;;;;;;;5054614;28;20172;-86
2022/11/13 01:08:06;;;;;;;23.77;5.23;;;;;;;;;;5054626;28;20645;-86
2022/11/13 01:11:29;;;;;;;5.83;4.73;;;;;;;;;;5062956;28;20219;-86
2022/11/13 01:14:52;;;;;;;6.63;5.37;;;;;;;;;;5074488;28;20211;-86
2022/11/13 01:18:15;;;;;;;7.90;5.00;;;;;;;;;;5074293;28;20534;-86
2022/11/13 01:21:37;;;;;;;12.53;5.33;;;;;;;;;;5074542;28;20214;-85
2022/11/13 01:25:00;;;;;;;5.87;5.20;;;;;;;;;;5074764;28;20625;-86
2022/11/13 01:28:23;;;;;;;10.27;5.67;;;;;;;;;;5074844;28;20975;-85
2022/11/13 01:31:45;;;;;;;6.77;5.50;;;;;;;;;;5074480;28;20617;-86
2022/11/13 01:35:08;;;;;;;8.30;5.10;;;;;;;;;;5074542;28;20211;-86
2022/11/13 01:38:31;;;;;;;7.73;5.70;;;;;;;;;;5072151;28;20179;-88
2022/11/13 01:41:54;;;;;;;21.00;6.17;;;;;;;;;;5073392;28;20684;-89
2022/11/13 01:45:54;;;;;;;20.83;5.63;;;;;;;;;;5073359;28;20534;-88
2022/11/13 01:49:23;;;;;;;45.43;6.83;;;;;;;;;;5082252;28;21059;-88
2022/11/13 01:52:45;;;;;;;7.40;5.87;;;;;;;;;;5081647;28;20612;-88
2022/11/13 01:56:08;;;;;;;11.43;6.53;;;;;;;;;;5073012;28;20206;-88
2022/11/13 01:59:37;;;;;;;14.50;6.63;;;;;;;;;;5082060;28;20179;-89
2022/11/13 02:03:00;;;;;;;14.20;6.87;;;;;;;;;;5082367;28;20518;-88
2022/11/13 02:06:27;;;;;;;14.07;5.97;;;;;;;;;;5073271;28;20622;-88
2022/11/13 02:09:51;;;;;;;24.90;6.33;;;;;;;;;;5073021;28;20183;-88
2022/11/13 02:13:15;;;;;;;41.53;8.33;;;;;;;;;;5072576;28;20179;-88
2022/11/13 02:16:40;;;;;;;23.70;6.13;;;;;;;;;;5072594;28;20542;-88
2022/11/13 02:20:04;;;;;;;37.13;8.80;;;;;;;;;;5082300;28;20545;-88
2022/11/13 02:23:40;;;;;;;10.60;6.43;;;;;;;;;;5073162;28;20541;-88
2022/11/13 02:27:06;;;;;;;34.33;6.67;;;;;;;;;;5072243;28;20605;-89
2022/11/13 02:30:31;;;;;;;78.03;7.40;;;;;;;;;;5073321;28;20538;-87
2022/11/13 02:33:53;;;;;;;41.10;6.47;;;;;;;;;;5083006;28;20542;-88
2022/11/13 02:37:16;;;;;;;17.60;5.53;;;;;;;;;;5072902;28;20537;-88
2022/11/13 02:40:38;;;;;;;31.60;7.77;;;;;;;;;;5081700;28;20546;-88
2022/11/13 02:44:00;;;;;;;55.17;6.40;;;;;;;;;;5072299;28;21079;-88
2022/11/13 02:47:23;;;;;;;24.63;5.67;;;;;;;;;;5084147;28;20541;-88
2022/11/13 02:50:46;;;;;;;36.40;6.50;;;;;;;;;;5075144;28;20873;-88
2022/11/13 02:54:08;;;;;;;38.77;6.33;;;;;;;;;;5086026;28;20537;-88
2022/11/13 02:57:31;;;;;;;33.33;5.67;;;;;;;;;;5080335;28;21095;-86
2022/11/13 03:00:54;;;;;;;6.13;5.03;;;;;;;;;;5079801;28;20632;-86
2022/11/13 03:04:17;;;;;;;18.23;4.77;;;;;;;;;;5091361;28;20539;-86
2022/11/13 03:07:40;;;;;;;16.03;4.63;;;;;;;;;;5088194;28;20542;-86
2022/11/13 03:11:08;;;;;;;11.67;5.00;;;;;;;;;;5079196;28;20617;-86
2022/11/13 03:14:31;;;;;;;7.23;5.00;;;;;;;;;;5090984;28;20600;-86
2022/11/13 03:17:53;;;;;;;6.70;4.47;;;;;;;;;;5093882;28;20533;-86
2022/11/13 03:21:16;;;;;;;5.23;4.33;;;;;;;;;;5085950;28;20620;-86
2022/11/13 03:24:39;;;;;;;4.73;4.10;;;;;;;;;;5094891;28;20538;-86
2022/11/13 03:28:02;;;;;;;11.83;4.60;;;;;;;;;;5085868;28;20896;-86
2022/11/13 03:31:24;;;;;;;5.60;4.57;;;;;;;;;;5084265;28;20960;-86
2022/11/13 03:34:46;;;;;;;5.37;4.30;;;;;;;;;;5083379;28;20588;-86
2022/11/13 03:38:09;;;;;;;8.97;4.87;;;;;;;;;;5094494;28;20541;-86
2022/11/13 03:41:32;;;;;;;48.67;5.40;;;;;;;;;;5090354;28;20628;-86
2022/11/13 03:44:54;;;;;;;6.80;4.17;;;;;;;;;;5090731;28;20537;-86
2022/11/13 03:48:17;;;;;;;22.50;5.07;;;;;;;;;;5080264;28;20537;-87
2022/11/13 03:51:39;;;;;;;22.07;5.60;;;;;;;;;;5091940;28;20620;-87
2022/11/13 03:55:02;;;;;;;32.13;4.73;;;;;;;;;;5079278;28;20597;-86
2022/11/13 03:58:24;;;;;;;7.77;3.67;;;;;;;;;;5087524;28;20545;-87
2022/11/13 04:01:47;;;;;;;21.87;4.43;;;;;;;;;;5086664;28;20647;-86
2022/11/13 04:05:10;;;;;;;4.73;3.73;;;;;;;;;;5078946;28;20530;-86
2022/11/13 04:08:33;;;;;;;5.20;4.20;;;;;;;;;;5078145;28;20557;-86
2022/11/13 04:11:55;;;;;;;5.67;4.53;;;;;;;;;;5078058;28;20632;-86
2022/11/13 04:15:18;;;;;;;4.33;3.80;;;;;;;;;;5077862;28;20593;-86
2022/11/13 04:18:40;;;;;;;14.10;4.40;;;;;;;;;;5076118;28;20537;-89
2022/11/13 04:22:03;;;;;;;5.20;4.20;;;;;;;;;;5076072;28;20628;-88
2022/11/13 04:25:25;;;;;;;14.60;4.43;;;;;;;;;;5097258;28;20541;-89
2022/11/13 04:28:48;;;;;;;7.10;4.17;;;;;;;;;;5075675;28;20538;-88
2022/11/13 04:32:11;;;;;;;14.30;4.60;;;;;;;;;;5074719;28;20629;-89
2022/11/13 04:35:34;;;;;;;12.07;4.60;;;;;;;;;;5075799;28;20597;-88
2022/11/13 04:38:56;;;;;;;17.13;5.57;;;;;;;;;;5075124;28;20545;-89
2022/11/13 04:46:00;;;;;;;11.80;5.20;;;;;;;;;;5084645;28;20533;-88
2022/11/13 04:49:23;;;;;;;51.43;5.20;;;;;;;;;;5075398;28;20542;-87
2022/11/13 04:52:45;;;;;;;15.60;4.50;;;;;;;;;;5076522;28;20625;-86
2022/11/13 04:56:08;;;;;;;12.43;4.70;;;;;;;;;;5077046;28;20593;-86
2022/11/13 04:59:30;;;;;;;6.87;4.70;;;;;;;;;;5088026;28;20537;-86
2022/11/13 05:02:55;;;;;;;11.03;4.93;;;;;;;;;;5087998;28;20642;-86
2022/11/13 05:06:17;;;;;;;21.27;4.93;;;;;;;;;;5085183;28;20537;-86
2022/11/13 05:09:40;;;;;;;6.60;4.87;;;;;;;;;;5085258;28;20538;-86
2022/11/13 05:13:02;;;;;;;9.13;4.90;;;;;;;;;;5076176;28;20537;-86
2022/11/13 05:16:30;;;;;;;9.73;4.50;;;;;;;;;;5075479;28;20598;-86
2022/11/13 05:19:52;;;;;;;12.53;4.70;;;;;;;;;;5076021;28;20900;-86
2022/11/13 05:23:15;;;;;;;13.27;4.73;;;;;;;;;;5076232;28;20537;-86
2022/11/13 05:26:38;;;;;;;14.90;4.53;;;;;;;;;;5076477;28;20529;-86
2022/11/13 05:30:01;;;;;;;8.60;4.30;;;;;;;;;;5075492;28;20542;-86
2022/11/13 05:33:27;;;;;;;5.53;4.67;;;;;;;;;;5075051;28;20537;-87
2022/11/13 05:36:49;;;;;;;5.67;4.80;;;;;;;;;;5074835;28;20589;-87
2022/11/13 05:40:12;;;;;;;6.03;4.90;;;;;;;;;;5084223;28;20542;-86
2022/11/13 05:43:36;;;;;;;5.43;4.37;;;;;;;;;;5075279;28;20900;-86
2022/11/13 05:46:59;;;;;;;8.47;4.33;;;;;;;;;;5075556;28;20534;-86
2022/11/13 05:50:21;;;;;;;4.63;4.13;;;;;;;;;;5075361;28;20538;-86
2022/11/13 05:53:44;;;;;;;5.97;4.47;;;;;;;;;;5075565;28;20896;-87
2022/11/13 05:57:07;;;;;;;7.43;4.40;;;;;;;;;;5075156;28;20594;-86
2022/11/13 06:00:29;;;;;;;14.23;4.17;;;;;;;;;;5074796;28;20908;-86
2022/11/13 06:03:53;;;;;;;4.70;4.20;;;;;;;;;;5075305;28;20534;-86
2022/11/13 06:07:16;;;;;;;4.43;4.00;;;;;;;;;;5086834;28;20542;-87
2022/11/13 06:10:38;;;;;;;20.60;4.57;;;;;;;;;;5075661;28;21068;-87
2022/11/13 06:14:03;;;;;;;15.47;4.40;;;;;;;;;;5086601;28;20542;-86
2022/11/13 06:17:25;;;;;;;5.37;4.50;;;;;;;;;;5075409;28;21142;-86
2022/11/13 06:20:48;;;;;;;71.27;5.20;;;;;;;;;;5074790;28;20854;-86
2022/11/13 06:24:12;;;;;;;5.20;4.00;;;;;;;;;;5075696;28;20542;-86
2022/11/13 06:27:34;;;;;;;64.53;6.40;;;;;;;;;;5075767;28;20530;-87
2022/11/13 06:31:09;;;;;;;16.57;3.97;;;;;;;;;;5086701;28;20628;-87
2022/11/13 06:34:32;;;;;;;5.03;4.07;;;;;;;;;;5075138;28;20537;-86
2022/11/13 06:37:55;;;;;;;21.43;4.40;;;;;;;;;;5074926;28;20536;-86
2022/11/13 06:41:23;;;;;;;30.40;4.10;;;;;;;;;;5075527;28;20624;-86
2022/11/13 06:44:46;;;;;;;32.80;9.23;;;;;;;;;;5075049;28;20876;-87
2022/11/13 06:48:08;;;;;;;77.90;5.70;;;;;;;;;;5075607;28;20542;-87
2022/11/13 06:51:31;;;;;;;17.17;4.60;;;;;;;;;;5075711;28;20628;-86
2022/11/13 06:54:53;;;;;;;28.50;7.30;;;;;;;;;;5084734;28;20538;-87
2022/11/13 06:58:16;;;;;;;14.93;4.67;;;;;;;;;;5075452;28;20533;-86
2022/11/13 07:01:39;;;;;;;30.80;7.83;;;;;;;;;;5074956;28;20648;-86
2022/11/13 07:05:01;;;;;;;40.47;6.50;;;;;;;;;;5075040;28;20538;-87
2022/11/13 07:08:24;;;;;;;23.90;5.23;;;;;;;;;;5086987;28;21071;-87
2022/11/13 07:11:49;;;;;;;17.90;5.03;;;;;;;;;;5074042;28;20612;-88
2022/11/13 07:15:12;;;;;;;15.13;4.20;;;;;;;;;;5074672;28;20877;-86
2022/11/13 07:18:35;;;;;;;5.50;4.67;;;;;;;;;;5074191;28;20537;-86
2022/11/13 07:21:58;;;;;;;9.37;4.63;;;;;;;;;;5085690;28;20616;-86
2022/11/13 07:25:21;;;;;;;10.97;5.20;;;;;;;;;;5073545;28;20545;-86
2022/11/13 07:28:43;;;;;;;14.23;4.43;;;;;;;;;;5074157;28;20554;-85
2022/11/13 07:32:06;;;;;;;5.80;4.47;;;;;;;;;;5095569;28;20702;-85
2022/11/13 07:35:29;;;;;;;11.80;3.83;;;;;;;;;;5074722;28;20575;-86
2022/11/13 07:38:52;;;;;;;11.33;4.10;;;;;;;;;;5077706;28;20549;-86
2022/11/13 07:42:14;;;;;;;6.17;4.30;;;;;;;;;;5086004;28;20628;-86
2022/11/13 07:45:37;;;;;;;7.30;5.10;;;;;;;;;;5077966;28;20549;-86
2022/11/13 07:49:00;;;;;;;12.00;5.10;;;;;;;;;;5088591;28;21075;-85
2022/11/13 07:52:22;;;;;;;5.67;4.50;;;;;;;;;;5071141;28;20637;-84
2022/11/13 07:55:45;;;;;;;10.07;4.70;;;;;;;;;;5058061;28;20546;-85
2022/11/13 07:59:08;;;;;;;7.20;4.53;;;;;;;;;;5056461;28;20546;-84
2022/11/13 08:02:30;;;;;;;5.90;4.33;;;;;;;;;;5052037;28;20600;-85
2022/11/13 08:06:02;;;;;;;5.23;4.10;;;;;;;;;;5047299;28;20581;-85
2022/11/13 08:09:24;;;;;;;6.57;5.07;;;;;;;;;;5056149;28;20179;-84
2022/11/13 08:12:47;;;;;;;5.83;4.63;;;;;;;;;;5056346;28;20219;-85
2022/11/13 08:16:10;;;;;;;10.30;4.70;;;;;;;;;;5067603;28;20302;-85
2022/11/13 08:19:33;;;;;;;5.40;4.67;;;;;;;;;;5056211;28;20188;-85
2022/11/13 08:22:56;;;;;;;8.63;5.47;;;;;;;;;;5044083;28;20219;-87
2022/11/13 08:26:19;;;;;;;7.00;5.57;;;;;;;;;;5043856;28;20203;-87
2022/11/13 08:29:42;;;;;;;8.40;7.10;;;;;;;;;;5035036;28;20180;-87
2022/11/13 08:33:04;;;;;;;7.93;5.17;;;;;;;;;;5034972;28;20546;-87
2022/11/13 08:36:27;;;;;;;6.53;5.23;;;;;;;;;;5034747;28;20212;-88
2022/11/13 08:39:49;;;;;;;6.10;4.97;;;;;;;;;;5034887;28;20176;-88
2022/11/13 08:43:12;;;;;;;7.00;4.93;;;;;;;;;;5035048;28;20180;-88
2022/11/13 08:46:35;;;;;;;7.00;5.17;;;;;;;;;;5034687;28;20176;-88
2022/11/13 08:49:57;;;;;;;6.17;5.30;;;;;;;;;;5043534;28;20196;-87
2022/11/13 08:53:21;;;;;;;8.63;5.30;;;;;;;;;;5034701;28;20185;-88
2022/11/13 08:56:46;;;;;;;6.50;5.70;;;;;;;;;;5034559;28;20208;-88
2022/11/13 09:00:10;;;;;;;6.53;4.87;;;;;;;;;;5034193;28;20181;-88
2022/11/13 09:03:34;;;;;;;5.90;4.80;;;;;;;;;;5046050;28;20196;-88
2022/11/13 09:06:57;;;;;;;8.13;5.60;;;;;;;;;;5034286;28;20513;-88
2022/11/13 09:10:20;;;;;;;7.03;5.93;;;;;;;;;;5054675;28;20176;-88
2022/11/13 09:13:42;;;;;;;7.40;5.87;;;;;;;;;;5034513;28;20184;-88
2022/11/13 09:17:05;;;;;;;8.03;5.77;;;;;;;;;;5034559;28;20208;-86
2022/11/13 09:20:29;;;;;;;7.83;6.90;;;;;;;;;;5035282;28;20623;-85
2022/11/13 09:23:52;;;;;;;6.97;5.77;;;;;;;;;;5034822;28;20185;-86
2022/11/13 09:27:15;;;;;;;12.53;9.37;;;;;;;;;;5044573;28;20185;-88
2022/11/13 09:30:39;;;;;;;11.47;7.70;;;;;;;;;;5034226;28;20184;-88
2022/11/13 09:34:01;;;;;;;8.40;7.23;;;;;;;;;;5034201;28;20180;-88
2022/11/13 09:37:24;;;;;;;7.33;6.20;;;;;;;;;;5034940;28;20208;-87
2022/11/13 09:40:54;;;;;;;6.93;5.80;;;;;;;;;;5034517;28;20539;-87
2022/11/13 09:44:30;;;;;;;9.67;6.00;;;;;;;;;;5054186;28;20663;-87
2022/11/13 09:47:56;;;;;;;8.20;5.47;;;;;;;;;;5033686;28;20176;-87
2022/11/13 09:51:29;;;;;;;7.23;4.87;;;;;;;;;;5053065;28;20227;-88
2022/11/13 09:54:52;;;;;;;6.67;4.63;;;;;;;;;;5045374;28;20185;-87
2022/11/13 09:58:22;;;;;;;3.90;3.17;;;;;;;;;;5047912;28;20208;-85
2022/11/13 10:02:06;;;;;;;5.53;3.60;;;;;;;;;;5065347;28;20222;-85
2022/11/13 10:06:00;;;;;;;4.87;3.67;;;;;;;;;;5055596;28;20527;-85
2022/11/13 10:09:59;;;;;;;4.97;3.40;;;;;;;;;;5044936;28;20191;-89
2022/11/13 10:13:53;;;;;;;4.33;3.20;;;;;;;;;;5064728;28;20561;-89
2022/11/13 10:17:35;;;;;;;5.33;3.20;;;;;;;;;;5052866;28;20207;-89
2022/11/13 10:21:24;;;;;;;6.03;3.43;;;;;;;;;;5042648;28;20220;-89
2022/11/13 10:24:51;;;;;;;5.33;3.20;;;;;;;;;;5033749;28;20184;-88
2022/11/13 10:28:15;;;;;;;4.07;2.87;;;;;;;;;;5038677;28;20184;-88
2022/11/13 10:31:46;;;;;;;5.40;3.60;;;;;;;;;;5044852;28;20223;-88
2022/11/13 10:35:46;;;;;;;8.77;4.73;;;;;;;;;;5043508;28;20196;-88
2022/11/13 10:39:09;;;;;;;4.47;3.47;;;;;;;;;;5033553;28;20180;-88
2022/11/13 10:42:38;;;;;;;6.07;4.00;;;;;;;;;;5033015;28;20215;-87
2022/11/13 10:46:04;;;;;;;5.27;4.10;;;;;;;;;;5044943;28;20175;-87
2022/11/13 10:49:27;;;;;;;5.83;4.03;;;;;;;;;;5052303;28;20642;-87
2022/11/13 10:52:52;;;;;;;9.30;4.37;;;;;;;;;;5061977;28;20231;-88
2022/11/13 10:56:35;;;;;;;6.17;3.77;;;;;;;;;;5052772;28;20188;-87
2022/11/13 10:59:57;;;;;;;5.77;3.70;;;;;;;;;;5053693;28;20658;-87
2022/11/13 11:03:26;;;;;;;6.47;4.00;;;;;;;;;;5053266;28;20516;-87
2022/11/13 11:06:50;;;;;;;5.60;3.70;;;;;;;;;;5053228;28;20180;-88
2022/11/13 11:10:30;;;;;;;4.50;4.00;;;;;;;;;;5064895;28;20183;-87
2022/11/13 11:14:08;;;;;;;4.97;3.80;;;;;;;;;;5058463;28;20199;-85
2022/11/13 11:17:45;;;;;;;7.83;3.70;;;;;;;;;;5065714;28;20215;-87
2022/11/13 11:21:12;;;;;;;6.00;4.17;;;;;;;;;;5045821;28;20239;-85
2022/11/13 11:24:41;;;;;;;4.67;3.93;;;;;;;;;;5045896;28;20540;-85
2022/11/13 11:28:45;;;;;;;7.93;3.80;;;;;;;;;;5044732;28;20183;-87
2022/11/13 11:32:32;;;;;;;5.60;3.90;;;;;;;;;;5069235;28;20215;-87
2022/11/13 11:36:01;;;;;;;4.93;3.87;;;;;;;;;;5069969;28;20184;-87
2022/11/13 11:39:59;;;;;;;4.73;3.63;;;;;;;;;;5053689;28;20512;-87
2022/11/13 11:43:38;;;;;;;6.13;3.87;;;;;;;;;;5040369;28;20181;-88
2022/11/13 11:47:01;;;;;;;6.20;4.13;;;;;;;;;;5056650;28;20195;-86
2022/11/13 11:50:38;;;;;;;5.27;3.73;;;;;;;;;;5043741;28;20181;-85
2022/11/13 11:54:14;;;;;;;6.80;4.23;;;;;;;;;;5044076;28;20172;-87
2022/11/13 11:58:14;;;;;;;6.23;3.93;;;;;;;;;;5057424;28;20223;-84
2022/11/13 12:01:58;;;;;;;5.30;3.93;;;;;;;;;;5056627;28;20228;-87
2022/11/13 12:05:34;;;;;;;6.13;4.10;;;;;;;;;;5043468;28;20196;-87
2022/11/13 12:09:23;;;;;;;6.33;4.07;;;;;;;;;;5063198;28;20172;-87
2022/11/13 12:13:14;;;;;;;6.13;4.30;;;;;;;;;;5042072;28;20219;-87
2022/11/13 12:16:48;;;;;;;5.60;4.63;;;;;;;;;;5046693;28;20531;-87
2022/11/13 12:20:43;;;;;;;8.30;4.73;;;;;;;;;;5058430;28;20199;-87
2022/11/13 12:24:34;;;;;;;5.40;4.20;;;;;;;;;;5066821;28;20191;-88
2022/11/13 12:28:10;;;;;;;8.50;4.70;;;;;;;;;;5058709;28;20179;-87
2022/11/13 12:31:47;;;;;;;7.90;4.23;;;;;;;;;;5057944;28;20206;-87
2022/11/13 12:35:17;;;;;;;6.13;4.67;;;;;;;;;;5057535;28;20184;-87
2022/11/13 12:39:06;;;;;;;6.97;4.93;;;;;;;;;;5068898;28;20649;-86
2022/11/13 12:42:43;;;;;;;5.37;4.53;;;;;;;;;;5056506;28;20215;-87
2022/11/13 12:46:08;;;;;;;8.67;4.43;;;;;;;;;;5056650;28;20599;-87
2022/11/13 12:49:33;;;;;;;7.00;4.80;;;;;;;;;;5056407;28;20176;-87
2022/11/13 12:53:04;;;;;;;5.93;4.20;;;;;;;;;;5057639;28;20215;-88
2022/11/13 12:56:27;;;;;;;5.83;4.77;;;;;;;;;;5055792;28;20183;-86
2022/11/13 12:59:53;;;;;;;6.07;4.67;;;;;;;;;;5055896;28;20524;-87
2022/11/13 13:03:42;;;;;;;6.30;4.77;;;;;;;;;;5056540;28;20519;-84
2022/11/13 13:07:12;;;;;;;5.07;4.33;;;;;;;;;;5056336;28;20633;-84
2022/11/13 13:11:07;;;;;;;8.03;3.93;;;;;;;;;;5068029;28;20179;-84
2022/11/13 13:15:00;;;;;;;6.27;4.50;;;;;;;;;;5056199;28;20183;-85
2022/11/13 13:18:22;;;;;;;5.93;4.17;;;;;;;;;;5056147;28;20207;-85
2022/11/13 13:21:44;;;;;;;5.57;4.17;;;;;;;;;;5056554;28;20215;-85
2022/11/13 13:25:31;;;;;;;6.43;4.43;;;;;;;;;;5055691;28;20179;-84
2022/11/13 13:29:00;;;;;;;6.30;4.40;;;;;;;;;;5055606;28;20179;-85
2022/11/13 13:32:58;;;;;;;8.53;4.33;;;;;;;;;;5067593;28;20219;-85
2022/11/13 13:36:33;;;;;;;5.60;4.00;;;;;;;;;;5055506;28;20183;-85
2022/11/13 13:40:14;;;;;;;5.30;3.87;;;;;;;;;;5067083;28;20666;-85
2022/11/13 13:44:01;;;;;;;5.30;4.00;;;;;;;;;;5055251;28;20200;-84
2022/11/13 13:47:37;;;;;;;5.47;3.87;;;;;;;;;;5066387;28;20195;-85
2022/11/13 13:51:14;;;;;;;4.73;3.87;;;;;;;;;;5064239;28;20211;-85
2022/11/13 13:54:39;;;;;;;5.03;4.40;;;;;;;;;;5054696;28;20188;-85
2022/11/13 13:58:11;;;;;;;8.90;4.20;;;;;;;;;;5054574;28;20207;-84
2022/11/13 14:01:34;;;;;;;5.17;3.97;;;;;;;;;;5054293;28;20223;-85
2022/11/13 14:04:56;;;;;;;4.63;3.90;;;;;;;;;;5055172;28;20188;-85
2022/11/13 14:08:22;;;;;;;5.03;4.07;;;;;;;;;;5064065;28;20175;-86
2022/11/13 14:11:46;;;;;;;6.33;4.27;;;;;;;;;;5069298;28;20215;-84
2022/11/13 14:15:21;;;;;;;6.17;4.20;;;;;;;;;;5054685;28;20183;-85
2022/11/13 14:18:44;;;;;;;6.43;4.23;;;;;;;;;;5064070;28;20543;-86
2022/11/13 14:22:09;;;;;;;5.43;3.70;;;;;;;;;;5054800;28;20662;-85
2022/11/13 14:25:32;;;;;;;5.27;3.87;;;;;;;;;;5055558;28;20184;-86
2022/11/13 14:28:59;;;;;;;7.23;4.07;;;;;;;;;;5054612;28;20180;-85
2022/11/13 14:32:29;;;;;;;4.93;3.63;;;;;;;;;;5065674;28;20554;-85
2022/11/13 14:35:53;;;;;;;4.60;3.67;;;;;;;;;;5053842;28;20179;-87
2022/11/13 14:39:27;;;;;;;8.03;4.20;;;;;;;;;;5054873;28;20211;-87
2022/11/13 14:42:54;;;;;;;4.90;4.00;;;;;;;;;;5055262;28;20219;-86
2022/11/13 14:46:30;;;;;;;4.53;3.83;;;;;;;;;;5054059;28;20172;-86
2022/11/13 14:49:53;;;;;;;5.37;3.77;;;;;;;;;;5054633;28;20180;-87
2022/11/13 14:53:29;;;;;;;4.57;3.93;;;;;;;;;;5068404;28;20175;-86
2022/11/13 14:56:52;;;;;;;6.73;4.00;;;;;;;;;;5066361;28;20175;-86
2022/11/13 15:00:25;;;;;;;4.90;4.10;;;;;;;;;;5063453;28;20172;-86
2022/11/13 15:03:49;;;;;;;6.53;4.00;;;;;;;;;;5053884;28;20297;-86
2022/11/13 15:07:24;;;;;;;4.37;3.97;;;;;;;;;;5065332;28;20180;-86
2022/11/13 15:10:47;;;;;;;4.80;4.30;;;;;;;;;;5075796;28;20179;-86
2022/11/13 15:14:15;;;;;;;6.73;3.93;;;;;;;;;;5054235;28;20195;-86
2022/11/13 15:17:37;;;;;;;6.13;4.47;;;;;;;;;;5054619;28;20179;-86
2022/11/13 15:21:00;;;;;;;5.63;3.93;;;;;;;;;;5053952;28;20211;-87
2022/11/13 15:24:23;;;;;;;5.80;4.57;;;;;;;;;;5054093;28;20188;-86
2022/11/13 15:27:45;;;;;;;7.97;4.67;;;;;;;;;;5053660;28;20180;-86
2022/11/13 15:31:18;;;;;;;6.23;4.87;;;;;;;;;;5065580;28;20219;-87
2022/11/13 15:34:41;;;;;;;6.23;4.07;;;;;;;;;;5065793;28;20207;-86
2022/11/13 15:38:04;;;;;;;5.77;3.87;;;;;;;;;;5054527;28;20208;-86
2022/11/13 15:41:28;;;;;;;5.63;4.10;;;;;;;;;;5053581;28;20219;-86
2022/11/13 15:44:51;;;;;;;6.07;4.00;;;;;;;;;;5054496;28;20180;-87
2022/11/13 15:48:14;;;;;;;5.33;4.13;;;;;;;;;;5062339;28;20172;-86
2022/11/13 15:51:42;;;;;;;8.60;4.87;;;;;;;;;;5053427;28;20219;-86
2022/11/13 15:55:29;;;;;;;14.80;6.00;;;;;;;;;;5053991;28;20184;-87
2022/11/13 15:58:52;;;;;;;9.63;6.07;;;;;;;;;;5059405;28;20204;-86
2022/11/13 16:02:15;;;;;;;9.97;5.67;;;;;;;;;;5056397;28;20231;-86
2022/11/13 16:05:38;;;;;;;10.00;5.47;;;;;;;;;;5066058;28;20183;-86
2022/11/13 16:09:03;;;;;;;7.80;5.47;;;;;;;;;;5066451;28;20183;-86
2022/11/13 16:12:25;;;;;;;7.37;5.77;;;;;;;;;;5066351;28;20215;-86
2022/11/13 16:15:48;;;;;;;7.63;5.97;;;;;;;;;;5058279;28;20175;-86
2022/11/13 16:19:23;;;;;;;6.07;4.53;;;;;;;;;;5057945;28;20211;-87
2022/11/13 16:22:45;;;;;;;5.10;4.17;;;;;;;;;;5068696;28;20214;-86
2022/11/13 16:26:17;;;;;;;7.80;4.60;;;;;;;;;;5056762;28;20179;-86
2022/11/13 16:29:40;;;;;;;8.23;4.83;;;;;;;;;;5066266;28;20176;-86
2022/11/13 16:33:06;;;;;;;24.37;16.60;;;;;;;;;;5056567;28;20180;-86
2022/11/13 16:36:29;;;;;;;34.80;22.83;;;;;;;;;;5056995;28;20188;-86
2022/11/13 16:39:51;;;;;;;44.23;29.30;;;;;;;;;;5055817;28;20208;-88
2022/11/13 16:43:14;;;;;;;15.47;10.37;;;;;;;;;;5055580;28;20180;-88
2022/11/13 16:46:40;;;;;;;8.60;5.80;;;;;;;;;;5064080;28;20184;-88
2022/11/13 16:50:02;;;;;;;10.03;7.80;;;;;;;;;;5066847;28;20615;-88
2022/11/13 16:53:25;;;;;;;8.20;6.10;;;;;;;;;;5055528;28;20183;-88
2022/11/13 16:56:48;;;;;;;7.57;4.13;;;;;;;;;;5055395;28;20179;-88
2022/11/13 17:00:13;;;;;;;8.07;5.37;;;;;;;;;;5054877;28;20209;-88
2022/11/13 17:03:36;;;;;;;6.87;5.10;;;;;;;;;;5054401;28;20643;-88
2022/11/13 17:06:59;;;;;;;5.80;4.60;;;;;;;;;;5055014;28;20535;-88
2022/11/13 17:10:21;;;;;;;4.83;3.60;;;;;;;;;;5065746;28;20184;-88
2022/11/13 17:13:55;;;;;;;4.97;3.90;;;;;;;;;;5054482;28;20528;-88
2022/11/13 17:17:17;;;;;;;4.97;3.83;;;;;;;;;;5054222;28;20187;-88
2022/11/13 17:20:40;;;;;;;5.53;3.63;;;;;;;;;;5054563;28;20180;-86
2022/11/13 17:24:03;;;;;;;6.23;4.20;;;;;;;;;;5055256;28;20183;-86
2022/11/13 17:27:26;;;;;;;16.60;7.37;;;;;;;;;;5056556;28;20184;-86
2022/11/13 17:30:48;;;;;;;11.77;7.20;;;;;;;;;;5056505;28;20175;-86
2022/11/13 17:34:11;;;;;;;10.57;7.27;;;;;;;;;;5055241;28;20524;-86
2022/11/13 17:37:34;;;;;;;9.87;6.03;;;;;;;;;;5055286;28;20180;-86
2022/11/13 17:41:07;;;;;;;7.53;5.77;;;;;;;;;;5054930;28;20586;-86
2022/11/13 17:44:29;;;;;;;7.70;5.33;;;;;;;;;;5055800;28;20180;-86
2022/11/13 17:47:52;;;;;;;8.87;6.50;;;;;;;;;;5054801;28;20184;-86
2022/11/13 17:51:14;;;;;;;15.47;9.37;;;;;;;;;;5064478;28;20207;-86
2022/11/13 17:54:37;;;;;;;10.77;7.27;;;;;;;;;;5055338;28;20179;-86
2022/11/13 17:58:00;;;;;;;9.47;6.80;;;;;;;;;;5056077;28;20184;-86
2022/11/13 18:01:22;;;;;;;9.50;7.27;;;;;;;;;;5077393;28;20231;-86
2022/11/13 18:04:45;;;;;;;10.93;7.20;;;;;;;;;;5054964;28;20511;-86
2022/11/13 18:08:10;;;;;;;8.20;6.83;;;;;;;;;;5063297;28;20623;-88
2022/11/13 18:11:33;;;;;;;9.53;7.07;;;;;;;;;;5062242;28;20215;-88
2022/11/13 18:14:55;;;;;;;11.37;7.50;;;;;;;;;;5053209;28;20180;-88
2022/11/13 18:18:17;;;;;;;8.83;7.20;;;;;;;;;;5053215;28;20559;-88
2022/11/13 18:21:40;;;;;;;13.90;8.83;;;;;;;;;;5055122;28;20215;-87
2022/11/13 18:25:03;;;;;;;40.23;16.37;;;;;;;;;;5060704;28;20203;-86
2022/11/13 18:28:26;;;;;;;28.57;14.30;;;;;;;;;;5046789;28;20516;-86
2022/11/13 18:31:49;;;;;;;36.43;19.00;;;;;;;;;;5051630;28;20219;-86
2022/11/13 18:35:11;;;;;;;71.67;34.03;;;;;;;;;;5049248;28;20527;-86
2022/11/13 18:38:34;;;;;;;59.83;30.00;;;;;;;;;;5056054;28;20179;-86
2022/11/13 18:41:59;;;;;;;38.93;21.60;;;;;;;;;;5055918;28;20563;-86
2022/11/13 18:45:21;;;;;;;20.00;13.50;;;;;;;;;;5055751;28;20548;-85
2022/11/13 18:48:45;;;;;;;13.63;9.07;;;;;;;;;;5066206;28;20271;-86
2022/11/13 18:52:08;;;;;;;15.43;10.10;;;;;;;;;;5060094;28;20215;-87
2022/11/13 18:55:31;;;;;;;10.60;7.77;;;;;;;;;;5050748;28;20192;-87
2022/11/13 18:58:55;;;;;;;10.60;8.43;;;;;;;;;;5064750;28;20211;-86
2022/11/13 19:02:18;;;;;;;11.47;8.53;;;;;;;;;;5052749;28;20219;-86
2022/11/13 19:05:44;;;;;;;12.87;9.03;;;;;;;;;;5074835;23;20704;-80
2022/11/13 19:09:11;;;;;;;10.93;8.10;;;;;;;;;;5044124;28;20180;-79
2022/11/13 19:12:33;;;;;;;11.50;8.83;;;;;;;;;;5053709;28;20566;-79
2022/11/13 19:15:56;;;;;;;12.37;8.13;;;;;;;;;;5045472;28;20177;-79
2022/11/13 19:19:22;;;;;;;11.97;8.23;;;;;;;;;;5044482;28;20204;-80
2022/11/13 19:22:44;;;;;;;11.63;8.67;;;;;;;;;;5057162;28;20188;-79
2022/11/13 19:26:08;;;;;;;11.10;8.20;;;;;;;;;;5056244;28;20185;-79
2022/11/13 19:29:31;;;;;;;13.07;8.43;;;;;;;;;;5047738;28;20177;-78
2022/11/13 19:32:54;;;;;;;14.10;8.70;;;;;;;;;;5046893;28;20184;-78
2022/11/13 19:36:17;;;;;;;11.63;8.60;;;;;;;;;;5048316;28;20180;-78
2022/11/13 19:39:40;;;;;;;13.23;7.80;;;;;;;;;;5059955;28;20208;-78
2022/11/13 19:43:03;;;;;;;11.70;7.83;;;;;;;;;;5049941;28;20188;-78
2022/11/13 19:46:27;;;;;;;9.67;7.50;;;;;;;;;;5048650;28;20176;-78
2022/11/13 19:49:49;;;;;;;10.90;8.20;;;;;;;;;;5059998;28;20177;-78
2022/11/13 19:53:15;;;;;;;11.40;7.87;;;;;;;;;;5048287;28;20180;-77
2022/11/13 19:56:38;;;;;;;12.23;8.27;;;;;;;;;;5046793;28;20653;-77
2022/11/13 20:00:00;;;;;;;9.60;7.23;;;;;;;;;;5044243;28;20544;-78
2022/11/13 20:03:27;;;;;;;10.87;8.10;;;;;;;;;;5044363;28;20192;-77
2022/11/13 20:06:50;;;;;;;11.20;7.37;;;;;;;;;;5043402;28;20180;-77
2022/11/13 20:10:12;;;;;;;10.20;7.40;;;;;;;;;;5046415;28;20180;-78
2022/11/13 20:13:36;;;;;;;9.40;7.37;;;;;;;;;;5043711;28;20180;-77
2022/11/13 20:16:59;;;;;;;9.53;6.70;;;;;;;;;;5046048;28;20670;-78
2022/11/13 20:20:22;;;;;;;11.37;7.57;;;;;;;;;;5059051;28;20207;-77
2022/11/13 20:23:44;;;;;;;9.87;7.37;;;;;;;;;;5063928;28;20203;-77
2022/11/13 20:27:07;;;;;;;10.30;6.97;;;;;;;;;;5063768;28;20180;-78
2022/11/13 20:30:29;;;;;;;8.73;6.40;;;;;;;;;;5072552;28;20180;-78
2022/11/13 20:33:54;;;;;;;8.20;6.17;;;;;;;;;;5071052;28;20176;-78